Time;durP1;ratioP1;P1;durP2;ratioP2;P2;SDS_P1;SDS_P2;PMS_P1;PMS_P2;Temp;Humidity;BMP_temperature;BMP_pressure;BME280_temperature;BME280_humidity;BME280_pressure;Samples;Min_cycle;Max_cycle;Signal;HPM_P1;HPM_P2
2023/04/08 00:00:42;;;;;;;;;;;;;;;9.21;100.00;99900.53;4946148;28;20021;-47
2023/04/08 00:03:07;;;;;;;;;;;;;;;9.16;100.00;99917.69;4944911;28;19926;-47
2023/04/08 00:05:33;;;;;;;;;;;;;;;9.08;100.00;99926.38;4940759;28;19918;-47
2023/04/08 00:07:58;;;;;;;;;;;;;;;9.21;100.00;99944.22;4946012;28;20484;-46
2023/04/08 00:10:25;;;;;;;;;;;;;;;9.21;100.00;99951.91;4945020;28;19919;-47
2023/04/08 00:12:50;;;;;;;;;;;;;;;8.88;100.00;99947.97;4946436;28;19922;-46
2023/04/08 00:15:15;;;;;;;;;;;;;;;8.77;100.00;99968.63;4945315;28;19929;-46
2023/04/08 00:17:41;;;;;;;;;;;;;;;8.91;100.00;99977.91;4944707;28;19923;-47
2023/04/08 00:20:06;;;;;;;;;;;;;;;8.76;100.00;99987.47;4945948;28;19933;-47
2023/04/08 00:22:31;;;;;;;;;;;;;;;8.46;100.00;99980.00;4943997;28;20075;-47
2023/04/08 00:24:57;;;;;;;;;;;;;;;8.46;100.00;99990.28;4945969;28;20509;-47
2023/04/08 00:27:24;;;;;;;;;;;;;;;8.43;100.00;100010.84;4945218;28;20128;-47
2023/04/08 00:29:49;;;;;;;;;;;;;;;8.40;100.00;100026.25;4946755;28;20204;-47
2023/04/08 00:32:15;;;;;;;;;;;;;;;8.74;100.00;100027.72;4945102;28;19922;-47
2023/04/08 00:34:40;;;;;;;;;;;;;;;8.12;100.00;100014.44;4943230;28;19922;-46
2023/04/08 00:37:06;;;;;;;;;;;;;;;8.36;100.00;100044.22;4944551;28;20013;-46
2023/04/08 00:39:31;;;;;;;;;;;;;;;8.27;100.00;100039.13;4945545;28;19918;-46
2023/04/08 00:41:56;;;;;;;;;;;;;;;8.72;100.00;100044.84;4944991;28;19926;-47
2023/04/08 00:44:21;;;;;;;;;;;;;;;9.04;100.00;100024.91;4945143;28;19929;-46
2023/04/08 00:46:47;;;;;;;;;;;;;;;8.94;100.00;100003.56;4945444;28;19962;-46
2023/04/08 00:49:12;;;;;;;;;;;;;;;8.90;100.00;99978.78;4945435;28;19929;-46
2023/04/08 00:51:37;;;;;;;;;;;;;;;8.91;100.00;99968.47;4944490;28;19922;-46
2023/04/08 00:54:03;;;;;;;;;;;;;;;9.38;100.00;99943.16;4946119;28;20445;-45
2023/04/08 00:56:29;;;;;;;;;;;;;;;9.18;100.00;99879.13;4943533;28;20388;-47
2023/04/08 00:58:54;;;;;;;;;;;;;;;9.48;100.00;99882.19;4942646;28;19925;-48
2023/04/08 01:01:32;;;;;;;;;;;;;;;9.40;100.00;99829.16;4945532;28;20064;-47
2023/04/08 01:04:04;;;;;;;;;;;;;;;9.88;100.00;99807.88;4945034;28;20433;-47
2023/04/08 01:06:31;;;;;;;;;;;;;;;9.57;100.00;99750.91;4944648;28;20020;-46
2023/04/08 01:08:58;;;;;;;;;;;;;;;8.99;100.00;99716.66;4945654;28;19922;-47
2023/04/08 01:11:23;;;;;;;;;;;;;;;9.21;100.00;99730.91;4946640;28;20294;-46
2023/04/08 01:13:49;;;;;;;;;;;;;;;9.14;100.00;99739.53;4946829;28;19926;-46
2023/04/08 01:16:14;;;;;;;;;;;;;;;9.52;100.00;99750.97;4946060;28;19925;-47
2023/04/08 01:18:40;;;;;;;;;;;;;;;9.24;100.00;99729.13;4947292;28;19952;-47
2023/04/08 01:21:05;;;;;;;;;;;;;;;9.48;100.00;99728.75;4946304;28;20052;-49
2023/04/08 01:23:34;;;;;;;;;;;;;;;9.33;100.00;99729.84;4946311;28;19926;-46
2023/04/08 01:25:59;;;;;;;;;;;;;;;8.62;100.00;99729.13;4949444;28;19926;-47
2023/04/08 01:28:26;;;;;;;;;;;;;;;8.64;100.00;99771.88;4946180;28;20437;-46
2023/04/08 01:30:51;;;;;;;;;;;;;;;9.31;100.00;99779.59;4948492;28;19976;-46
2023/04/08 01:33:16;;;;;;;;;;;;;;;9.39;100.00;99757.19;4946676;28;19918;-46
2023/04/08 01:35:42;;;;;;;;;;;;;;;9.62;100.00;99746.53;4945155;28;19922;-47
2023/04/08 01:38:08;;;;;;;;;;;;;;;9.76;100.00;99730.88;4946606;28;20416;-47
2023/04/08 01:40:33;;;;;;;;;;;;;;;9.98;100.00;99701.31;4946208;28;19937;-47
2023/04/08 01:42:58;;;;;;;;;;;;;;;10.05;100.00;99655.75;4947440;28;20076;-46
2023/04/08 01:45:24;;;;;;;;;;;;;;;9.35;100.00;99665.56;4948275;28;19919;-46
2023/04/08 01:47:49;;;;;;;;;;;;;;;9.69;100.00;99673.53;4946269;28;19926;-46
2023/04/08 01:50:15;;;;;;;;;;;;;;;9.81;100.00;99665.63;4947858;28;19918;-46
2023/04/08 01:52:40;;;;;;;;;;;;;;;9.67;100.00;99656.44;4947296;28;19949;-47
2023/04/08 01:55:06;;;;;;;;;;;;;;;10.16;100.00;99645.25;4946096;28;20097;-47
2023/04/08 01:57:31;;;;;;;;;;;;;;;9.07;100.00;99627.44;4945956;28;20372;-47
2023/04/08 01:59:58;;;;;;;;;;;;;;;9.89;100.00;99662.91;4947996;28;19929;-48
2023/04/08 02:02:24;;;;;;;;;;;;;;;9.89;100.00;99649.19;4947141;28;19922;-46
2023/04/08 02:04:49;;;;;;;;;;;;;;;9.76;100.00;99648.56;4947049;28;19919;-47
2023/04/08 02:07:15;;;;;;;;;;;;;;;10.13;100.00;99660.75;4947669;28;19993;-46
2023/04/08 02:09:41;;;;;;;;;;;;;;;9.83;100.00;99643.28;4946055;28;19976;-47
2023/04/08 02:12:06;;;;;;;;;;;;;;;9.83;100.00;99648.44;4939427;28;19929;-40
2023/04/08 02:14:31;;;;;;;;;;;;;;;9.84;100.00;99669.88;4945466;28;20693;-40
2023/04/08 02:17:20;;;;;;;;;;;;;;;9.97;100.00;99661.03;4946779;28;19975;-41
2023/04/08 02:19:51;;;;;;;;;;;;;;;9.82;100.00;99676.75;4942423;28;19953;-41
2023/04/08 02:22:18;;;;;;;;;;;;;;;9.94;100.00;99686.81;4945926;28;19922;-41
2023/04/08 02:24:44;;;;;;;;;;;;;;;10.41;100.00;99687.66;4945491;28;20017;-40
2023/04/08 02:27:09;;;;;;;;;;;;;;;10.26;100.00;99663.06;4946707;28;20223;-41
2023/04/08 02:29:34;;;;;;;;;;;;;;;10.09;100.00;99684.84;4945826;28;19933;-41
2023/04/08 02:32:00;;;;;;;;;;;;;;;10.34;100.00;99675.78;4947128;28;20009;-41
2023/04/08 02:34:25;;;;;;;;;;;;;;;10.09;100.00;99664.25;4943717;28;20075;-41
2023/04/08 02:36:50;;;;;;;;;;;;;;;10.11;100.00;99665.94;4947261;28;19975;-41
2023/04/08 02:39:16;;;;;;;;;;;;;;;10.50;100.00;99678.06;4946937;28;19918;-41
2023/04/08 02:41:41;;;;;;;;;;;;;;;10.78;100.00;99661.13;4947301;28;19934;-41
2023/04/08 02:44:06;;;;;;;;;;;;;;;10.82;100.00;99652.44;4948204;28;19978;-41
2023/04/08 02:46:32;;;;;;;;;;;;;;;10.34;100.00;99668.06;4945227;28;19925;-41
2023/04/08 02:48:57;;;;;;;;;;;;;;;10.85;100.00;99659.25;4939140;28;19995;-46
2023/04/08 02:51:22;;;;;;;;;;;;;;;10.54;100.00;99641.06;4946084;28;19918;-42
2023/04/08 02:53:47;;;;;;;;;;;;;;;10.26;100.00;99639.03;4946187;28;20711;-41
2023/04/08 02:56:13;;;;;;;;;;;;;;;10.77;100.00;99641.41;4946639;28;20383;-41
2023/04/08 02:58:38;;;;;;;;;;;;;;;10.54;100.00;99646.22;4947017;28;19923;-41
2023/04/08 03:01:03;;;;;;;;;;;;;;;10.97;100.00;99640.94;4945818;28;20461;-41
2023/04/08 03:03:30;;;;;;;;;;;;;;;10.36;100.00;99612.25;4946459;28;20203;-40
2023/04/08 03:05:55;;;;;;;;;;;;;;;10.01;100.00;99634.38;4947026;28;19922;-41
2023/04/08 03:08:21;;;;;;;;;;;;;;;9.51;100.00;99641.31;4945636;28;20073;-41
2023/04/08 03:10:46;;;;;;;;;;;;;;;10.18;100.00;99669.22;4946660;28;20001;-42
2023/04/08 03:13:11;;;;;;;;;;;;;;;10.17;100.00;99675.25;4947344;28;19968;-41
2023/04/08 03:15:36;;;;;;;;;;;;;;;9.66;100.00;99670.19;4946108;28;19965;-41
2023/04/08 03:18:02;;;;;;;;;;;;;;;10.05;100.00;99700.31;4947223;28;19918;-41
2023/04/08 03:20:27;;;;;;;;;;;;;;;10.46;100.00;99680.69;4945677;28;20357;-41
2023/04/08 03:22:52;;;;;;;;;;;;;;;10.59;100.00;99670.16;4947233;28;20232;-42
2023/04/08 03:25:17;;;;;;;;;;;;;;;10.42;100.00;99655.91;4945985;28;21001;-41
2023/04/08 03:27:43;;;;;;;;;;;;;;;10.65;100.00;99639.06;4947295;28;20470;-41
2023/04/08 03:30:08;;;;;;;;;;;;;;;10.63;100.00;99631.41;4945161;28;20460;-41
2023/04/08 03:32:34;;;;;;;;;;;;;;;10.74;100.00;99633.75;4945928;28;19918;-42
2023/04/08 03:34:59;;;;;;;;;;;;;;;10.99;100.00;99628.00;4944446;28;20266;-42
2023/04/08 03:37:24;;;;;;;;;;;;;;;10.96;100.00;99602.31;4946121;28;20035;-41
2023/04/08 03:39:50;;;;;;;;;;;;;;;10.84;100.00;99594.00;4945565;28;19923;-41
2023/04/08 03:42:15;;;;;;;;;;;;;;;10.85;100.00;99611.13;4945941;28;19983;-41
2023/04/08 03:44:40;;;;;;;;;;;;;;;10.79;100.00;99605.31;4946926;28;20158;-41
2023/04/08 03:47:05;;;;;;;;;;;;;;;10.96;100.00;99599.75;4945042;28;20326;-41
2023/04/08 03:49:31;;;;;;;;;;;;;;;10.96;100.00;99594.59;4937849;28;20032;-45
2023/04/08 03:51:56;;;;;;;;;;;;;;;10.45;100.00;99606.91;4946199;28;20290;-46
2023/04/08 03:54:21;;;;;;;;;;;;;;;10.65;100.00;99623.63;4946764;28;20337;-46
2023/04/08 03:56:47;;;;;;;;;;;;;;;10.96;100.00;99617.78;4946548;28;20408;-47
2023/04/08 03:59:13;;;;;;;;;;;;;;;10.80;100.00;99618.13;4944789;28;19921;-48
2023/04/08 04:01:38;;;;;;;;;;;;;;;10.79;100.00;99611.31;4944811;28;20948;-47
2023/04/08 04:04:03;;;;;;;;;;;;;;;11.11;100.00;99620.00;4946340;28;19922;-47
2023/04/08 04:06:28;;;;;;;;;;;;;;;10.95;100.00;99598.91;4946060;28;19953;-48
2023/04/08 04:08:54;;;;;;;;;;;;;;;11.03;100.00;99586.66;4946427;28;19926;-47
2023/04/08 04:11:20;;;;;;;;;;;;;;;10.42;100.00;99578.66;4945532;28;19926;-47
2023/04/08 04:13:46;;;;;;;;;;;;;;;10.96;100.00;99602.31;4943877;28;19922;-46
2023/04/08 04:16:11;;;;;;;;;;;;;;;10.87;100.00;99593.91;4944777;28;19941;-46
2023/04/08 04:18:36;;;;;;;;;;;;;;;11.06;100.00;99598.63;4944296;28;19997;-46
2023/04/08 04:21:04;;;;;;;;;;;;;;;10.65;100.00;99618.47;4946768;28;19937;-47
2023/04/08 04:23:29;;;;;;;;;;;;;;;10.96;100.00;99620.38;4941265;28;20478;-46
2023/04/08 04:25:54;;;;;;;;;;;;;;;11.02;100.00;99615.91;4945359;28;20012;-46
2023/04/08 04:28:19;;;;;;;;;;;;;;;11.23;100.00;99614.53;4944804;28;20338;-47
2023/04/08 04:30:45;;;;;;;;;;;;;;;11.38;100.00;99604.72;4946047;28;19922;-46
2023/04/08 04:33:10;;;;;;;;;;;;;;;11.58;100.00;99592.16;4946461;28;20172;-46
2023/04/08 04:35:35;;;;;;;;;;;;;;;11.61;100.00;99576.59;4941679;28;19929;-46
2023/04/08 04:38:00;;;;;;;;;;;;;;;11.67;100.00;99571.25;4944184;28;19922;-47
2023/04/08 04:40:26;;;;;;;;;;;;;;;11.55;100.00;99550.97;4946029;28;19930;-48
2023/04/08 04:42:51;;;;;;;;;;;;;;;11.57;100.00;99554.34;4949046;28;19925;-47
2023/04/08 04:45:16;;;;;;;;;;;;;;;11.41;100.00;99558.22;4949089;28;20375;-47
2023/04/08 04:47:41;;;;;;;;;;;;;;;11.41;100.00;99566.81;4948009;28;20417;-47
2023/04/08 04:50:07;;;;;;;;;;;;;;;11.61;100.00;99568.00;4948714;28;20571;-47
2023/04/08 04:52:32;;;;;;;;;;;;;;;11.58;100.00;99550.88;4948213;28;19926;-47
2023/04/08 04:54:57;;;;;;;;;;;;;;;11.61;100.00;99555.97;4947052;28;19945;-46
2023/04/08 04:57:23;;;;;;;;;;;;;;;11.63;100.00;99549.03;4947883;28;20261;-47
2023/04/08 04:59:48;;;;;;;;;;;;;;;10.58;100.00;99555.09;4948318;28;19923;-46
2023/04/08 05:02:13;;;;;;;;;;;;;;;10.73;100.00;99624.31;4949103;28;20020;-47
2023/04/08 05:04:38;;;;;;;;;;;;;;;11.55;100.00;99622.34;4947729;28;20330;-47
2023/04/08 05:07:04;;;;;;;;;;;;;;;11.86;100.00;99588.81;4949253;28;19922;-47
2023/04/08 05:09:29;;;;;;;;;;;;;;;11.84;100.00;99567.38;4948706;28;19968;-46
2023/04/08 05:11:55;;;;;;;;;;;;;;;11.73;100.00;99584.00;4946784;28;19925;-47
2023/04/08 05:14:20;;;;;;;;;;;;;;;12.17;100.00;99569.91;4949543;28;19922;-46
2023/04/08 05:16:45;;;;;;;;;;;;;;;12.34;100.00;99555.59;4946600;28;20323;-47
2023/04/08 05:19:11;;;;;;;;;;;;;;;12.33;100.00;99538.41;4947643;28;20043;-47
2023/04/08 05:21:36;;;;;;;;;;;;;;;12.33;100.00;99540.97;4947884;28;19922;-48
2023/04/08 05:24:01;;;;;;;;;;;;;;;11.98;100.00;99534.31;4947909;28;20025;-46
2023/04/08 05:26:26;;;;;;;;;;;;;;;11.29;100.00;99555.09;4946081;28;20009;-46
2023/04/08 05:28:52;;;;;;;;;;;;;;;11.83;100.00;99570.84;4949055;28;20107;-47
2023/04/08 05:31:20;;;;;;;;;;;;;;;12.38;100.00;99561.50;4948222;28;20396;-46
2023/04/08 05:33:45;;;;;;;;;;;;;;;12.07;100.00;99539.19;4946366;28;19944;-47
2023/04/08 05:36:11;;;;;;;;;;;;;;;12.19;100.00;99544.91;4946822;28;20395;-47
2023/04/08 05:38:36;;;;;;;;;;;;;;;12.41;100.00;99545.94;4947673;28;19921;-46
2023/04/08 05:41:01;;;;;;;;;;;;;;;12.21;100.00;99550.84;4949614;28;19926;-47
2023/04/08 05:43:27;;;;;;;;;;;;;;;12.34;100.00;99558.19;4948186;28;20314;-47
2023/04/08 05:45:52;;;;;;;;;;;;;;;11.36;100.00;99578.13;4948183;28;20543;-47
2023/04/08 05:48:17;;;;;;;;;;;;;;;12.02;100.00;99599.59;4948015;28;19932;-46
2023/04/08 05:50:42;;;;;;;;;;;;;;;12.65;100.00;99582.22;4947692;28;19918;-47
2023/04/08 05:53:08;;;;;;;;;;;;;;;12.70;100.00;99554.50;4949628;28;19922;-47
2023/04/08 05:55:33;;;;;;;;;;;;;;;12.14;100.00;99547.63;4950087;28;19923;-47
2023/04/08 05:57:58;;;;;;;;;;;;;;;11.94;100.00;99568.84;4946237;28;20054;-47
2023/04/08 06:00:24;;;;;;;;;;;;;;;10.32;100.00;99613.19;4949650;28;19934;-50
2023/04/08 06:02:49;;;;;;;;;;;;;;;10.57;100.00;99689.94;4947422;28;19926;-47
2023/04/08 06:05:14;;;;;;;;;;;;;;;11.06;100.00;99717.19;4949061;28;19928;-48
2023/04/08 06:07:40;;;;;;;;;;;;;;;9.45;100.00;99751.94;4950432;28;19918;-47
2023/04/08 06:10:06;;;;;;;;;;;;;;;10.35;100.00;99854.28;4951908;28;20555;-47
2023/04/08 06:12:34;;;;;;;;;;;;;;;10.22;100.00;99874.22;4949604;28;19922;-46
2023/04/08 06:14:59;;;;;;;;;;;;;;;9.34;100.00;99931.19;4949572;28;20445;-47
2023/04/08 06:17:25;;;;;;;;;;;;;;;10.13;100.00;100003.91;4950674;28;19922;-47
2023/04/08 06:19:50;;;;;;;;;;;;;;;10.05;100.00;100034.88;4950252;28;19926;-48
2023/04/08 06:22:15;;;;;;;;;;;;;;;9.42;100.00;100073.38;4950032;28;19922;-47
2023/04/08 06:24:41;;;;;;;;;;;;;;;9.29;100.00;100144.59;4949961;28;19922;-47
2023/04/08 06:27:06;;;;;;;;;;;;;;;9.17;100.00;100207.25;4948374;28;19949;-47
2023/04/08 06:29:32;;;;;;;;;;;;;;;9.61;100.00;100285.78;4950312;28;20379;-47
2023/04/08 06:31:57;;;;;;;;;;;;;;;9.92;100.00;100308.69;4948998;28;20688;-47
2023/04/08 06:34:23;;;;;;;;;;;;;;;9.89;100.00;100347.31;4948141;28;19930;-48
2023/04/08 06:36:49;;;;;;;;;;;;;;;11.09;100.00;100385.66;4949436;28;19979;-48
2023/04/08 06:39:15;;;;;;;;;;;;;;;9.94;100.00;100321.53;4951381;28;19925;-47
2023/04/08 06:41:41;;;;;;;;;;;;;;;9.72;100.00;100334.56;4948576;28;19932;-48
2023/04/08 06:44:06;;;;;;;;;;;;;;;9.85;100.00;100361.03;4949462;28;20362;-47
2023/04/08 06:46:31;;;;;;;;;;;;;;;10.37;100.00;100391.56;4948174;28;19961;-46
2023/04/08 06:48:56;;;;;;;;;;;;;;;11.80;100.00;100383.88;4945276;28;19923;-47
2023/04/08 06:51:21;;;;;;;;;;;;;;;11.16;100.00;100236.91;4949074;28;19926;-50
2023/04/08 06:53:47;;;;;;;;;;;;;;;11.30;100.00;100222.06;4948102;28;19972;-49
2023/04/08 06:56:12;;;;;;;;;;;;;;;10.79;100.00;100147.22;4947246;28;19967;-47
2023/04/08 06:58:37;;;;;;;;;;;;;;;11.95;100.00;100156.50;4946466;28;20730;-46
2023/04/08 07:01:02;;;;;;;;;;;;;;;10.92;100.00;100105.81;4945885;28;19929;-46
2023/04/08 07:03:28;;;;;;;;;;;;;;;11.61;100.00;100082.25;4946198;28;19918;-46
2023/04/08 07:05:53;;;;;;;;;;;;;;;11.99;100.00;100013.56;4946205;28;19922;-47
2023/04/08 07:08:18;;;;;;;;;;;;;;;12.41;100.00;99940.31;4947172;28;19922;-46
2023/04/08 07:10:43;;;;;;;;;;;;;;;12.34;100.00;99851.78;4946584;28;19921;-47
2023/04/08 07:13:09;;;;;;;;;;;;;;;11.85;100.00;99796.19;4947736;28;19930;-46
2023/04/08 07:15:34;;;;;;;;;;;;;;;11.66;100.00;99821.56;4946375;28;19922;-46
2023/04/08 07:18:00;;;;;;;;;;;;;;;10.75;100.00;99843.28;4943830;28;19995;-47
2023/04/08 07:20:25;;;;;;;;;;;;;;;11.08;100.00;99911.34;4946375;28;20306;-46
2023/04/08 07:22:50;;;;;;;;;;;;;;;10.54;100.00;99902.03;4947572;28;19963;-48
2023/04/08 07:25:16;;;;;;;;;;;;;;;10.70;100.00;99973.88;4946346;28;19918;-49
2023/04/08 07:27:41;;;;;;;;;;;;;;;10.41;100.00;100006.13;4945801;28;20322;-48
2023/04/08 07:30:06;;;;;;;;;;;;;;;9.32;100.00;100035.75;4945765;28;19948;-47
2023/04/08 07:32:32;;;;;;;;;;;;;;;11.15;100.00;100119.16;4946313;28;19926;-46
2023/04/08 07:34:57;;;;;;;;;;;;;;;10.91;100.00;100129.88;4944479;28;19972;-53
2023/04/08 07:37:23;;;;;;;;;;;;;;;10.89;100.00;100120.44;4945062;28;19925;-47
2023/04/08 07:39:48;;;;;;;;;;;;;;;10.61;100.00;100103.69;4947122;28;19923;-47
2023/04/08 07:42:13;;;;;;;;;;;;;;;9.80;100.00;100123.53;4947339;28;19958;-46
2023/04/08 07:44:38;;;;;;;;;;;;;;;11.78;100.00;100161.09;4945277;28;19934;-47
2023/04/08 07:47:04;;;;;;;;;;;;;;;11.73;100.00;100065.69;4944802;28;19944;-47
2023/04/08 07:49:29;;;;;;;;;;;;;;;11.86;100.00;100015.53;4945631;28;19922;-46
2023/04/08 07:51:54;;;;;;;;;;;;;;;10.09;100.00;99980.81;4946485;28;19918;-46
2023/04/08 07:54:20;;;;;;;;;;;;;;;10.03;100.00;100057.25;4946061;28;19929;-46
2023/04/08 07:56:45;;;;;;;;;;;;;;;10.97;100.00;100093.69;4943094;28;20133;-47
2023/04/08 07:59:10;;;;;;;;;;;;;;;9.78;100.00;100086.69;4947099;28;21180;-46
2023/04/08 08:01:36;;;;;;;;;;;;;;;9.57;100.00;100132.34;4945682;28;19925;-47
2023/04/08 08:04:02;;;;;;;;;;;;;;;10.31;100.00;100203.66;4950616;28;19940;-47
2023/04/08 08:06:28;;;;;;;;;;;;;;;10.37;100.00;100192.44;4952681;28;19922;-47
2023/04/08 08:08:53;;;;;;;;;;;;;;;9.97;100.00;100173.13;4944912;28;19925;-46
2023/04/08 08:11:18;;;;;;;;;;;;;;;10.56;100.00;100216.22;4949328;28;20594;-49
2023/04/08 08:13:44;;;;;;;;;;;;;;;9.91;100.00;100164.59;4946187;28;20450;-47
2023/04/08 08:16:10;;;;;;;;;;;;;;;11.03;100.00;100194.13;4944843;28;19930;-49
2023/04/08 08:18:35;;;;;;;;;;;;;;;11.22;100.00;100135.38;4945201;28;20014;-46
2023/04/08 08:21:01;;;;;;;;;;;;;;;10.05;100.00;100132.69;4943957;28;20517;-47
2023/04/08 08:23:26;;;;;;;;;;;;;;;9.55;100.00;100157.22;4945667;28;19926;-47
2023/04/08 08:26:01;;;;;;;;;;;;;;;9.28;100.00;100199.44;4944392;28;20071;-46
2023/04/08 08:28:27;;;;;;;;;;;;;;;9.34;100.00;100235.41;4947464;28;19928;-46
2023/04/08 08:30:52;;;;;;;;;;;;;;;10.61;100.00;100266.00;4945364;28;19918;-47
2023/04/08 08:33:17;;;;;;;;;;;;;;;10.36;100.00;100203.63;4947393;28;20367;-47
2023/04/08 08:35:42;;;;;;;;;;;;;;;10.09;100.00;100168.69;4942312;28;19922;-47
2023/04/08 08:38:08;;;;;;;;;;;;;;;10.47;100.00;100155.41;4945364;28;19922;-46
2023/04/08 08:40:33;;;;;;;;;;;;;;;10.36;100.00;100121.22;4945698;28;20431;-47
2023/04/08 08:43:00;;;;;;;;;;;;;;;10.94;100.00;100115.22;4945167;28;19918;-47
2023/04/08 08:45:25;;;;;;;;;;;;;;;11.27;100.00;100062.25;4946491;28;19915;-47
2023/04/08 08:47:50;;;;;;;;;;;;;;;9.96;100.00;100004.13;4946738;28;20294;-46
2023/04/08 08:50:15;;;;;;;;;;;;;;;10.21;100.00;100039.84;4947273;28;19917;-46
2023/04/08 08:52:47;;;;;;;;;;;;;;;11.35;100.00;100054.34;4948788;28;19967;-45
2023/04/08 08:55:12;;;;;;;;;;;;;;;10.56;100.00;100047.09;4944766;28;19991;-45
2023/04/08 08:57:37;;;;;;;;;;;;;;;10.70;100.00;100008.25;4946495;28;19930;-46
2023/04/08 09:00:02;;;;;;;;;;;;;;;10.80;100.00;100011.50;4946243;28;20374;-47
2023/04/08 09:02:29;;;;;;;;;;;;;;;10.27;100.00;100019.16;4950553;28;20457;-47
2023/04/08 09:05:03;;;;;;;;;;;;;;;10.48;100.00;100058.38;4950299;28;19926;-49
2023/04/08 09:07:30;;;;;;;;;;;;;;;10.96;100.00;100045.59;4952285;28;19964;-48
2023/04/08 09:09:55;;;;;;;;;;;;;;;11.10;100.00;100023.84;4945417;28;20523;-48
2023/04/08 09:12:23;;;;;;;;;;;;;;;9.98;100.00;100058.16;4946136;28;19922;-49
2023/04/08 09:14:48;;;;;;;;;;;;;;;9.82;100.00;100099.50;4945822;28;19919;-48
2023/04/08 09:17:13;;;;;;;;;;;;;;;10.18;100.00;100102.50;4945021;28;20077;-48
2023/04/08 09:19:39;;;;;;;;;;;;;;;9.66;100.00;100117.69;4946701;28;20678;-46
2023/04/08 09:22:08;;;;;;;;;;;;;;;8.88;100.00;100144.94;4946066;28;20169;-46
2023/04/08 09:24:33;;;;;;;;;;;;;;;9.43;100.00;100193.34;4940742;28;19918;-46
2023/04/08 09:26:58;;;;;;;;;;;;;;;10.32;100.00;100181.34;4941975;28;19974;-47
2023/04/08 09:29:25;;;;;;;;;;;;;;;9.55;100.00;100172.66;4944258;28;20029;-47
2023/04/08 09:31:57;;;;;;;;;;;;;;;10.99;100.00;100210.50;4946659;28;19922;-47
2023/04/08 09:34:22;;;;;;;;;;;;;;;10.34;100.00;100104.94;4944014;28;19945;-47
2023/04/08 09:36:48;;;;;;;;;;;;;;;10.23;100.00;100110.19;4944902;28;21001;-49
2023/04/08 09:39:14;;;;;;;;;;;;;;;12.22;100.00;100105.19;4945488;28;20260;-47
2023/04/08 09:41:39;;;;;;;;;;;;;;;11.59;100.00;100042.75;4946059;28;19961;-48
2023/04/08 09:44:05;;;;;;;;;;;;;;;12.50;100.00;99977.09;4947483;28;19924;-47
2023/04/08 09:46:49;;;;;;;;;;;;;;;10.92;100.00;99904.78;4946470;28;20330;-49
2023/04/08 09:49:21;;;;;;;;;;;;;;;9.75;100.00;99929.81;4947043;28;19925;-48
2023/04/08 09:51:46;;;;;;;;;;;;;;;10.41;100.00;100026.72;4939614;28;19923;-47
2023/04/08 09:54:12;;;;;;;;;;;;;;;10.98;100.00;100059.31;4946445;28;19922;-47
2023/04/08 09:56:43;;;;;;;;;;;;;;;10.64;100.00;100029.78;4947246;28;19953;-50
2023/04/08 09:59:09;;;;;;;;;;;;;;;9.73;100.00;100044.75;4947014;28;19922;-47
2023/04/08 10:01:41;;;;;;;;;;;;;;;11.52;100.00;100072.13;4945277;28;19926;-48
2023/04/08 10:04:11;;;;;;;;;;;;;;;11.12;100.00;100016.09;4947312;28;19926;-47
2023/04/08 10:06:36;;;;;;;;;;;;;;;11.34;100.00;99982.19;4947237;28;20009;-47
2023/04/08 10:09:01;;;;;;;;;;;;;;;11.15;100.00;99964.47;4945869;28;20001;-46
2023/04/08 10:11:27;;;;;;;;;;;;;;;10.74;100.00;99994.44;4937632;28;19958;-47
2023/04/08 10:13:52;;;;;;;;;;;;;;;11.50;100.00;100041.19;4944854;28;19937;-47
2023/04/08 10:16:26;;;;;;;;;;;;;;;11.59;100.00;100014.38;4946394;28;19922;-47
2023/04/08 10:18:57;;;;;;;;;;;;;;;11.56;100.00;100016.97;4946294;28;20024;-47
2023/04/08 10:21:36;;;;;;;;;;;;;;;11.89;100.00;100030.13;4947276;28;19976;-46
2023/04/08 10:24:05;;;;;;;;;;;;;;;12.32;100.00;100008.53;4945868;28;20516;-47
2023/04/08 10:26:32;;;;;;;;;;;;;;;12.65;100.00;99964.69;4946136;28;19923;-46
2023/04/08 10:29:17;;;;;;;;;;;;;;;12.01;100.00;99961.91;4946231;28;19925;-50
2023/04/08 10:31:51;;;;;;;;;;;;;;;13.14;100.00;99959.09;4942079;28;19914;-49
2023/04/08 10:34:17;;;;;;;;;;;;;;;11.95;100.00;99916.44;4944061;28;19952;-48
2023/04/08 10:36:43;;;;;;;;;;;;;;;12.81;100.00;99923.78;4947523;28;20478;-47
2023/04/08 10:39:08;;;;;;;;;;;;;;;11.75;100.00;99908.25;4945556;28;19926;-47
2023/04/08 10:41:33;;;;;;;;;;;;;;;12.98;100.00;99893.16;4948542;28;19929;-46
2023/04/08 10:44:02;;;;;;;;;;;;;;;12.65;100.00;99877.66;4947959;28;19988;-47
2023/04/08 10:46:27;;;;;;;;;;;;;;;11.89;100.00;99864.94;4947071;28;20382;-47
2023/04/08 10:48:59;;;;;;;;;;;;;;;11.62;100.00;99893.03;4947541;28;19922;-46
2023/04/08 10:51:24;;;;;;;;;;;;;;;12.21;100.00;99927.88;4946137;28;19929;-47
2023/04/08 10:53:49;;;;;;;;;;;;;;;11.95;100.00;99924.19;4945613;28;19922;-47
2023/04/08 10:56:15;;;;;;;;;;;;;;;10.93;100.00;99958.88;4944765;28;20272;-49
2023/04/08 10:58:47;;;;;;;;;;;;;;;12.27;100.00;99967.31;4947883;28;19922;-50
2023/04/08 11:01:13;;;;;;;;;;;;;;;11.67;100.00;99960.00;4946818;28;19926;-48
2023/04/08 11:03:38;;;;;;;;;;;;;;;12.12;100.00;99993.50;4948371;28;19932;-46
2023/04/08 11:06:03;;;;;;;;;;;;;;;13.27;100.00;99928.53;4948401;28;19922;-47
2023/04/08 11:08:32;;;;;;;;;;;;;;;13.42;100.00;99890.25;4946594;28;19980;-48
2023/04/08 11:10:57;;;;;;;;;;;;;;;12.90;100.00;99890.78;4948511;28;19922;-47
2023/04/08 11:13:23;;;;;;;;;;;;;;;12.52;100.00;99918.50;4944305;28;19929;-51
2023/04/08 11:15:48;;;;;;;;;;;;;;;12.85;100.00;99977.94;4946814;28;19922;-52
2023/04/08 11:18:13;;;;;;;;;;;;;;;13.34;100.00;99935.28;4944749;28;19926;-47
2023/04/08 11:20:39;;;;;;;;;;;;;;;12.91;100.00;99848.53;4943438;28;19983;-52
2023/04/08 11:23:10;;;;;;;;;;;;;;;11.93;100.00;99877.75;4949650;28;19925;-52
2023/04/08 11:25:35;;;;;;;;;;;;;;;13.03;100.00;99961.13;4947377;28;20691;-49
2023/04/08 11:28:01;;;;;;;;;;;;;;;11.45;100.00;99900.31;4947008;28;19921;-48
2023/04/08 11:30:26;;;;;;;;;;;;;;;12.36;100.00;99927.47;4947508;28;19918;-48
2023/04/08 11:32:52;;;;;;;;;;;;;;;12.47;100.00;99935.81;4945487;28;19926;-48
2023/04/08 11:35:17;;;;;;;;;;;;;;;12.37;100.00;99900.78;4944400;28;19967;-48
2023/04/08 11:37:43;;;;;;;;;;;;;;;14.04;100.00;99864.16;4945367;28;19919;-48
2023/04/08 11:40:09;;;;;;;;;;;;;;;12.82;100.00;99859.13;4947428;28;19973;-46
2023/04/08 11:42:34;;;;;;;;;;;;;;;13.61;100.00;99826.66;4947969;28;20013;-50
2023/04/08 11:45:00;;;;;;;;;;;;;;;12.95;100.00;99803.63;4947281;28;19919;-47
2023/04/08 11:47:32;;;;;;;;;;;;;;;12.58;100.00;99852.03;4947074;28;20646;-49
2023/04/08 11:49:57;;;;;;;;;;;;;;;12.75;100.00;99848.13;4946980;28;20001;-48
2023/04/08 11:52:22;;;;;;;;;;;;;;;12.88;100.00;99853.78;4946044;28;20012;-48
2023/04/08 11:54:47;;;;;;;;;;;;;;;12.25;100.00;99867.53;4947846;28;19972;-47
2023/04/08 11:57:14;;;;;;;;;;;;;;;12.06;100.00;99898.94;4947098;28;19957;-47
2023/04/08 11:59:39;;;;;;;;;;;;;;;13.21;100.00;99928.72;4947289;28;19923;-47
2023/04/08 12:02:04;;;;;;;;;;;;;;;12.84;100.00;99893.56;4946780;28;20286;-48
2023/04/08 12:04:30;;;;;;;;;;;;;;;12.81;100.00;99898.78;4946029;28;19965;-49
2023/04/08 12:06:55;;;;;;;;;;;;;;;12.82;100.00;99860.84;4948334;28;19921;-47
2023/04/08 12:09:21;;;;;;;;;;;;;;;11.48;100.00;99893.31;4948697;28;19918;-48
2023/04/08 12:11:46;;;;;;;;;;;;;;;12.16;100.00;99973.59;4946644;28;20362;-48
2023/04/08 12:14:11;;;;;;;;;;;;;;;12.71;100.00;99995.56;4946365;28;19922;-48
2023/04/08 12:16:36;;;;;;;;;;;;;;;12.68;100.00;99960.31;4946205;28;19929;-48
2023/04/08 12:19:01;;;;;;;;;;;;;;;13.08;100.00;99948.06;4946637;28;19922;-47
2023/04/08 12:21:27;;;;;;;;;;;;;;;13.49;100.00;99876.22;4948644;28;19965;-50
2023/04/08 12:23:52;;;;;;;;;;;;;;;13.65;100.00;99882.63;4946267;28;19922;-48
2023/04/08 12:26:18;;;;;;;;;;;;;;;13.83;100.00;99819.06;4945068;28;19922;-47
2023/04/08 12:28:43;;;;;;;;;;;;;;;13.98;100.00;99838.44;4946285;28;20577;-48